Página principal
METAR-TAF:

METAR-TAF

Aeroportos :

Aeroporto de Estocolmo-Arlanda

Estocolmo-Arlanda, Suécia

latitude: 59-39N, longitude: 017-57E, altura: 38 m

Observação actual do tempo

O boletim foi feito há 23 minutos, às 01:20 UTC
Vento 3 kt de es-nordeste
Temperatura -2°C
Humidade 93%
Pressão 1034 hPa
Visibilidade: 8000 m
Poucas nuvensa uma altura de 500 ft
Encobertoa uma altura de 900 ft

METAR: ESSA 140120Z 07003KT 8000 FEW005 OVC009 M02/M03 Q1034 R01L/29//69 R08/29//73 R01R/29//81 TEMPO BKN008

Hora: 02:43 (01:43 UTC)

Previsão

O boletim foi feito há 2 horas e 13 minutos, às 23:30 UTC
Previsão válida de 14 às 00 UTC a 14 às 24 UTC
Vento 5 kt de nordeste
Visibilidade 10 km ou mais
Poucas nuvensa uma altura de 800 ft
Encobertoa uma altura de 1500 ft
Temporariamente
de 14 às 00 UTC a 14 às 12 UTC
Nuvens fragmentadasa uma altura de 800 ft

TAF: ESSA 132330Z 1400/1424 05005KT 9999 FEW008 OVC015 TEMPO 1400/1412 BKN008

Observações e previsões do tempo de mais de 4000 aeroportos (mensagens METAR e TAF).

As estações disponíveis são os pontos amarelos e vermelhos sobre o mapa.

Mova o rato sobre o mapa para ver o nome da estação.

Depois clique no ponto para visualizar as observações e previsões meteorológicas.

Para alterar o mapa : clique nos botões verdes com uma cruz preta para aumentar o zoom; no botão verde com uma pitada de zoom; ou nas setas verdes para mapas adjacentes.


METAR-TAF: